Terminal Aerodrome Forecast
Issued by NWS Burlington, VT

Home | Current Version | Previous Version | Text Only | Print | Product List | Glossary On
Versions: 1 2 3 4 5 6 7 8 9 10 11 12
122
FTUS41 KBTV 271122
TAFBTV
TAF
KBTV 271122Z 2712/2812 19008KT P6SM FEW060 SCT080
     FM271500 22004KT P6SM SCT060
     FM271900 29006KT P6SM SCT060
     FM280000 VRB03KT P6SM SCT060=

USA.gov is the U.S. government's official web portal to all federal, state and local government web resources and services.